createdAt,value
2023-04-23T00:00:56.175Z,20.1179
2023-04-23T00:01:57.818Z,20.0948
2023-04-23T00:02:59.873Z,20.0686
2023-04-23T00:04:01.474Z,20.0696
2023-04-23T00:05:02.784Z,20.0577
2023-04-23T00:06:04.467Z,20.0803
2023-04-23T00:07:06.013Z,20.0872
2023-04-23T00:08:07.794Z,20.0437
2023-04-23T00:09:09.335Z,20.0131
2023-04-23T00:10:11.007Z,20.0782
2023-04-23T00:11:13.192Z,20.1156
2023-04-23T00:12:14.282Z,20.1022
2023-04-23T00:13:15.909Z,20.1006
2023-04-23T00:14:17.629Z,20.0692
2023-04-23T00:15:19.719Z,20.0907
2023-04-23T00:16:20.887Z,20.0686
2023-04-23T00:17:22.492Z,20.0829
2023-04-23T00:18:24.154Z,20.0790
2023-04-23T00:19:25.828Z,20.0616
2023-04-23T00:20:27.405Z,20.0507
2023-04-23T00:21:29.030Z,20.0550
2023-04-23T00:22:30.737Z,20.0073
2023-04-23T00:23:32.447Z,19.9901
2023-04-23T00:24:34.330Z,20.0379
2023-04-23T00:25:35.590Z,20.0478
2023-04-23T00:26:37.313Z,20.0774
2023-04-23T00:27:38.931Z,20.0815
2023-04-23T00:28:41.340Z,20.0671
2023-04-23T00:29:42.215Z,20.0825
2023-04-23T00:30:43.883Z,20.1164
2023-04-23T00:31:45.485Z,20.1041
2023-04-23T00:32:47.330Z,20.0829
2023-04-23T00:33:48.736Z,20.0772
2023-04-23T00:34:50.770Z,20.0692
2023-04-23T00:35:52.018Z,20.0805
2023-04-23T00:36:53.733Z,20.0813
2023-04-23T00:37:55.290Z,20.0599
2023-04-23T00:38:57.027Z,20.0351
2023-04-23T00:39:58.764Z,20.0550
2023-04-23T00:41:00.353Z,20.0671
2023-04-23T00:42:01.878Z,20.0702
2023-04-23T00:43:03.568Z,20.0579
2023-04-23T00:44:05.325Z,20.0759
2023-04-23T00:45:06.861Z,20.0922
2023-04-23T00:46:09.314Z,20.0601
2023-04-23T00:47:10.072Z,20.0494
2023-04-23T00:48:11.805Z,20.0630
2023-04-23T00:49:14.323Z,20.0338
2023-04-23T00:50:15.163Z,20.0164
2023-04-23T00:51:17.370Z,20.0071
2023-04-23T00:52:18.359Z,19.9845
2023-04-23T00:53:19.982Z,19.9761
2023-04-23T00:54:21.570Z,19.9811
2023-04-23T00:55:23.331Z,20.0223
2023-04-23T00:56:24.960Z,20.0361
2023-04-23T00:57:26.594Z,20.0225
2023-04-23T00:58:28.140Z,20.0336
2023-04-23T00:59:29.817Z,20.0392
2023-04-23T01:00:32.319Z,20.0205
2023-04-23T01:01:33.251Z,20.0071
2023-04-23T01:02:34.812Z,20.0332
2023-04-23T01:03:36.682Z,20.0394
2023-04-23T01:04:38.177Z,20.0295
2023-04-23T01:05:39.853Z,20.0006
2023-04-23T01:06:41.472Z,20.0100
2023-04-23T01:07:43.079Z,20.0154
2023-04-23T01:08:44.727Z,20.0227
2023-04-23T01:09:46.396Z,20.0494
2023-04-23T01:10:48.102Z,20.0784
2023-04-23T01:11:49.755Z,20.0868
2023-04-23T01:12:51.277Z,20.1000
2023-04-23T01:13:52.991Z,20.1088
2023-04-23T01:14:54.538Z,20.0681
2023-04-23T01:15:56.268Z,20.0314
2023-04-23T01:16:58.874Z,19.9926
2023-04-23T01:17:59.593Z,19.9494
2023-04-23T01:19:01.084Z,19.9227
2023-04-23T01:20:02.746Z,19.8991
2023-04-23T01:21:04.467Z,19.9194
2023-04-23T01:22:06.139Z,19.9891
2023-04-23T01:23:07.763Z,20.0887
2023-04-23T01:24:09.367Z,20.0916
2023-04-23T01:25:10.977Z,20.1146
2023-04-23T01:26:13.592Z,20.0979
2023-04-23T01:27:14.341Z,20.0716
2023-04-23T01:28:15.956Z,20.0585
2023-04-23T01:29:17.599Z,20.0400
2023-04-23T01:30:19.232Z,20.0531
2023-04-23T01:31:20.966Z,20.0620
2023-04-23T01:32:22.647Z,20.0125
2023-04-23T01:33:24.118Z,20.0166
2023-04-23T01:34:26.778Z,20.0057
2023-04-23T01:35:27.343Z,20.0168
2023-04-23T01:36:29.359Z,20.0511
2023-04-23T01:37:30.818Z,20.0981
2023-04-23T01:38:33.295Z,20.1228
2023-04-23T01:39:33.996Z,20.1737
2023-04-23T01:40:36.014Z,20.2088
2023-04-23T01:41:37.237Z,20.2358
2023-04-23T01:42:38.944Z,20.2064
2023-04-23T01:43:40.558Z,20.1828
2023-04-23T01:44:42.568Z,20.1860
2023-04-23T01:45:43.914Z,20.1491
2023-04-23T01:46:45.432Z,20.0618
2023-04-23T01:47:47.224Z,19.9878
2023-04-23T01:48:48.762Z,19.9135
2023-04-23T01:49:50.397Z,19.9755
2023-04-23T01:50:52.141Z,20.0421
2023-04-23T01:51:53.672Z,20.0575
2023-04-23T01:52:55.406Z,20.0893
2023-04-23T01:53:56.918Z,20.1115
2023-04-23T01:54:59.038Z,20.1100
2023-04-23T01:56:00.236Z,20.0628
2023-04-23T01:57:01.880Z,20.0416
2023-04-23T01:58:03.505Z,20.0312
2023-04-23T01:59:06.466Z,19.9819
2023-04-23T02:00:06.760Z,19.9712
2023-04-23T02:01:09.492Z,19.9574
2023-04-23T02:02:10.069Z,19.9281
2023-04-23T02:03:11.892Z,19.9689
2023-04-23T02:04:13.380Z,20.0258
2023-04-23T02:05:15.181Z,20.0497
2023-04-23T02:06:16.613Z,20.0513
2023-04-23T02:07:18.286Z,20.1074
2023-04-23T02:08:19.938Z,20.1427
2023-04-23T02:09:22.649Z,20.1222
2023-04-23T02:10:23.163Z,20.1000
2023-04-23T02:11:25.096Z,20.0864
2023-04-23T02:12:26.584Z,20.0336
2023-04-23T02:13:28.514Z,19.9829
2023-04-23T02:14:29.756Z,19.9365
2023-04-23T02:15:31.487Z,19.9297
2023-04-23T02:16:33.136Z,19.9593
2023-04-23T02:17:34.784Z,20.0030
2023-04-23T02:18:36.366Z,20.0217
2023-04-23T02:19:38.083Z,20.0525
2023-04-23T02:20:39.666Z,20.0262
2023-04-23T02:21:41.422Z,20.0412
2023-04-23T02:22:43.882Z,20.0176
2023-04-23T02:23:44.664Z,19.9792
2023-04-23T02:24:46.306Z,19.9720
2023-04-23T02:25:48.004Z,19.9338
2023-04-23T02:26:49.549Z,19.9153
2023-04-23T02:27:51.218Z,19.8970
2023-04-23T02:28:53.010Z,19.9389
2023-04-23T02:29:54.499Z,19.9813
2023-04-23T02:30:56.090Z,20.0096
2023-04-23T02:31:57.930Z,20.0568
2023-04-23T02:32:59.437Z,20.1133
2023-04-23T02:34:01.029Z,20.1978
2023-04-23T02:35:02.645Z,20.1637
2023-04-23T02:36:04.308Z,20.1252
2023-04-23T02:37:06.957Z,20.0521
2023-04-23T02:38:07.521Z,20.0277
2023-04-23T02:39:09.102Z,19.9568
2023-04-23T02:40:10.907Z,19.9248
2023-04-23T02:41:12.928Z,19.8701
2023-04-23T02:42:14.204Z,19.9028
2023-04-23T02:43:15.783Z,19.9843
2023-04-23T02:44:17.426Z,20.0191
2023-04-23T02:45:19.088Z,20.0571
2023-04-23T02:46:20.780Z,20.1105
2023-04-23T02:47:22.447Z,20.1002
2023-04-23T02:48:24.031Z,20.0819
2023-04-23T02:49:25.650Z,20.1012
2023-04-23T02:50:27.305Z,20.0918
2023-04-23T02:51:29.509Z,20.0881
2023-04-23T02:52:30.579Z,20.0683
2023-04-23T02:53:32.217Z,20.0349
2023-04-23T02:54:33.829Z,20.0240
2023-04-23T02:55:35.500Z,20.0063
2023-04-23T02:56:37.144Z,20.0114
2023-04-23T02:57:38.932Z,20.0513
2023-04-23T02:58:40.392Z,20.0868
2023-04-23T02:59:42.118Z,20.1462
2023-04-23T03:00:43.725Z,20.1618
2023-04-23T03:01:45.394Z,20.1388
2023-04-23T03:02:47.126Z,20.1308
2023-04-23T03:03:48.869Z,20.1491
2023-04-23T03:04:50.256Z,20.1172
2023-04-23T03:05:51.926Z,20.0759
2023-04-23T03:06:53.639Z,20.0492
2023-04-23T03:07:55.936Z,19.9835
2023-04-23T03:08:56.812Z,19.9472
2023-04-23T03:09:58.539Z,19.9599
2023-04-23T03:11:00.167Z,19.9989
2023-04-23T03:12:02.486Z,20.0412
2023-04-23T03:13:03.454Z,20.0967
2023-04-23T03:14:05.140Z,20.1257
2023-04-23T03:15:06.706Z,20.1357
2023-04-23T03:16:08.934Z,20.1037
2023-04-23T03:17:10.060Z,20.1150
2023-04-23T03:18:11.716Z,20.1170
2023-04-23T03:19:13.345Z,20.0914
2023-04-23T03:20:15.914Z,20.0571
2023-04-23T03:21:16.557Z,19.9827
2023-04-23T03:22:18.307Z,19.9815
2023-04-23T03:23:19.926Z,19.9866
2023-04-23T03:24:21.559Z,20.0410
2023-04-23T03:25:23.117Z,20.0737
2023-04-23T03:26:24.828Z,20.0924
2023-04-23T03:27:26.481Z,20.1417
2023-04-23T03:28:28.162Z,20.1384
2023-04-23T03:29:29.707Z,20.1008
2023-04-23T03:30:31.381Z,20.0794
2023-04-23T03:31:32.975Z,20.0671
2023-04-23T03:32:34.714Z,20.0047
2023-04-23T03:33:36.341Z,19.9841
2023-04-23T03:34:37.952Z,19.9708
2023-04-23T03:35:39.594Z,20.0310
2023-04-23T03:36:41.204Z,20.0712
2023-04-23T03:37:42.907Z,20.0809
2023-04-23T03:38:44.596Z,20.1528
2023-04-23T03:39:46.147Z,20.1895
2023-04-23T03:40:47.843Z,20.1659
2023-04-23T03:41:49.418Z,20.0842
2023-04-23T03:42:51.169Z,20.0542
2023-04-23T03:43:53.430Z,20.0293
2023-04-23T03:44:54.371Z,20.0369
2023-04-23T03:45:56.104Z,19.9895
2023-04-23T03:46:58.402Z,19.9502
2023-04-23T03:47:59.428Z,19.9576
2023-04-23T03:49:01.454Z,19.9909
2023-04-23T03:50:02.604Z,20.0260
2023-04-23T03:51:04.229Z,20.0285
2023-04-23T03:52:05.908Z,20.0729
2023-04-23T03:53:07.596Z,20.1098
2023-04-23T03:54:09.128Z,20.0967
2023-04-23T03:55:10.787Z,20.1137
2023-04-23T03:56:12.397Z,20.1760
2023-04-23T03:57:14.016Z,20.2417
2023-04-23T03:58:15.700Z,20.3463
2023-04-23T03:59:17.333Z,20.5369
2023-04-23T04:00:19.032Z,20.6879
2023-04-23T04:01:20.594Z,20.8450
2023-04-23T04:02:22.408Z,20.9555
2023-04-23T04:03:25.185Z,21.0221
2023-04-23T04:04:25.832Z,21.0929
2023-04-23T04:05:27.309Z,21.1712
2023-04-23T04:06:28.914Z,21.2420
2023-04-23T04:07:30.464Z,21.3310
2023-04-23T04:08:32.133Z,21.4842
2023-04-23T04:09:33.764Z,21.6851
2023-04-23T04:10:35.932Z,21.8603
2023-04-23T04:11:37.410Z,22.0234
2023-04-23T04:12:38.739Z,22.1158
2023-04-23T04:13:40.370Z,22.1076
2023-04-23T04:14:42.301Z,22.0994
2023-04-23T04:15:44.459Z,22.1128
2023-04-23T04:16:45.368Z,22.1627
2023-04-23T04:17:47.017Z,22.2153
2023-04-23T04:18:48.724Z,22.2623
2023-04-23T04:19:50.606Z,22.3371
2023-04-23T04:20:52.031Z,22.4885
2023-04-23T04:21:53.630Z,22.6575
2023-04-23T04:22:55.295Z,22.8580
2023-04-23T04:23:57.980Z,22.9960
2023-04-23T04:24:58.454Z,23.0521
2023-04-23T04:26:00.203Z,23.0412
2023-04-23T04:27:01.869Z,23.0726
2023-04-23T04:28:03.554Z,23.0470
2023-04-23T04:29:05.126Z,23.0942
2023-04-23T04:30:06.880Z,23.1369
2023-04-23T04:31:08.505Z,23.2386
2023-04-23T04:32:10.098Z,23.3803
2023-04-23T04:33:11.770Z,23.5282
2023-04-23T04:34:13.449Z,23.6112
2023-04-23T04:35:14.968Z,23.6523
2023-04-23T04:36:16.703Z,23.6907
2023-04-23T04:37:18.279Z,23.7591
2023-04-23T04:38:19.960Z,23.8117
2023-04-23T04:39:21.583Z,23.8489
2023-04-23T04:40:23.278Z,23.9056
2023-04-23T04:41:24.920Z,23.9160
2023-04-23T04:42:26.534Z,23.8982
2023-04-23T04:43:28.227Z,23.9150
2023-04-23T04:44:29.796Z,23.9129
2023-04-23T04:45:31.509Z,23.8848
2023-04-23T04:46:33.131Z,23.9269
2023-04-23T04:47:34.776Z,23.9390
2023-04-23T04:48:37.377Z,23.9606
2023-04-23T04:49:38.089Z,23.9832
2023-04-23T04:50:39.680Z,24.0033
2023-04-23T04:51:41.293Z,24.0216
2023-04-23T04:52:42.983Z,24.0442
2023-04-23T04:53:44.589Z,24.0569
2023-04-23T04:54:46.226Z,24.0980
2023-04-23T04:55:47.907Z,24.1251
2023-04-23T04:56:49.627Z,24.1360
2023-04-23T04:57:52.200Z,24.1436
2023-04-23T04:58:53.776Z,24.1629
2023-04-23T04:59:55.350Z,24.1828
2023-04-23T05:00:56.098Z,24.2059
2023-04-23T05:01:57.793Z,24.2373
2023-04-23T05:02:59.535Z,24.2494
2023-04-23T05:04:01.109Z,24.2917
2023-04-23T05:05:02.619Z,24.3077
2023-04-23T05:06:04.302Z,24.3125
2023-04-23T05:07:05.925Z,24.3155
2023-04-23T05:08:07.574Z,24.3383
2023-04-23T05:09:09.173Z,24.3751
2023-04-23T05:10:10.931Z,24.4059
2023-04-23T05:11:12.498Z,24.4326
2023-04-23T05:12:14.238Z,24.4489
2023-04-23T05:13:15.855Z,24.4809
2023-04-23T05:14:17.459Z,24.5166
2023-04-23T05:15:19.108Z,24.5528
2023-04-23T05:16:20.871Z,24.5889
2023-04-23T05:17:23.075Z,24.5970
2023-04-23T05:18:24.120Z,24.6169
2023-04-23T05:19:25.647Z,24.6329
2023-04-23T05:20:27.352Z,24.6553
2023-04-23T05:21:29.022Z,24.6561
2023-04-23T05:22:30.670Z,24.6900
2023-04-23T05:23:32.213Z,24.7440
2023-04-23T05:24:33.948Z,24.7765
2023-04-23T05:25:35.580Z,24.8340
2023-04-23T05:26:37.267Z,24.8683
2023-04-23T05:27:38.893Z,24.8862
2023-04-23T05:28:40.517Z,24.9250
2023-04-23T05:29:42.118Z,24.9552
2023-04-23T05:30:43.804Z,24.9753
2023-04-23T05:31:45.498Z,24.9959
2023-04-23T05:32:47.198Z,25.0014
2023-04-23T05:33:50.504Z,25.0203
2023-04-23T05:34:50.372Z,25.0478
2023-04-23T05:35:52.019Z,25.0322
2023-04-23T05:36:53.772Z,25.0462
2023-04-23T05:37:55.373Z,25.0809
2023-04-23T05:38:56.996Z,25.0803
2023-04-23T05:39:58.577Z,25.0499
2023-04-23T05:41:00.291Z,25.0846
2023-04-23T05:42:02.405Z,25.1088
2023-04-23T05:43:03.579Z,25.1238
2023-04-23T05:44:05.185Z,25.1520
2023-04-23T05:45:08.864Z,25.1520
2023-04-23T05:46:08.512Z,25.1700
2023-04-23T05:47:10.203Z,25.1941
2023-04-23T05:48:11.843Z,25.2391
2023-04-23T05:49:13.468Z,25.2520
2023-04-23T05:50:15.092Z,25.2752
2023-04-23T05:51:16.788Z,25.2723
2023-04-23T05:52:18.434Z,25.2547
2023-04-23T05:53:20.162Z,25.2803
2023-04-23T05:54:21.653Z,25.3140
2023-04-23T05:55:23.338Z,25.3350
2023-04-23T05:56:25.058Z,25.3457
2023-04-23T05:57:27.525Z,25.3699
2023-04-23T05:58:28.346Z,25.3898
2023-04-23T05:59:29.978Z,25.4204
2023-04-23T06:00:31.630Z,25.4369
2023-04-23T06:01:33.205Z,25.4342
2023-04-23T06:02:35.042Z,25.4572
2023-04-23T06:03:36.793Z,25.5124
2023-04-23T06:04:38.361Z,25.5200
2023-04-23T06:05:39.835Z,25.5389
2023-04-23T06:06:41.484Z,25.5767
2023-04-23T06:07:43.180Z,25.6032
2023-04-23T06:08:45.063Z,25.6256
2023-04-23T06:09:46.401Z,25.6361
2023-04-23T06:10:48.108Z,25.6425
2023-04-23T06:11:49.683Z,25.6568
2023-04-23T06:12:51.592Z,25.6930
2023-04-23T06:13:53.060Z,25.7068
2023-04-23T06:14:54.689Z,25.7006
2023-04-23T06:15:56.319Z,25.7027
2023-04-23T06:16:57.981Z,25.7532
2023-04-23T06:17:59.666Z,25.7865
2023-04-23T06:19:01.588Z,25.7986
2023-04-23T06:20:02.904Z,25.8300
2023-04-23T06:21:04.566Z,25.8464
2023-04-23T06:22:06.164Z,25.8471
2023-04-23T06:23:07.866Z,25.8680
2023-04-23T06:24:09.504Z,25.8920
2023-04-23T06:25:11.180Z,25.9337
2023-04-23T06:26:12.722Z,25.9448
2023-04-23T06:27:14.421Z,25.9678
2023-04-23T06:28:16.163Z,25.9919
2023-04-23T06:29:17.758Z,26.0032
2023-04-23T06:30:19.374Z,26.0297
2023-04-23T06:31:21.061Z,26.0369
2023-04-23T06:32:22.630Z,26.0664
2023-04-23T06:33:24.284Z,26.0915
2023-04-23T06:34:26.131Z,26.1406
2023-04-23T06:35:27.635Z,26.1804
2023-04-23T06:36:29.166Z,26.1817
2023-04-23T06:37:31.029Z,26.1813
2023-04-23T06:38:32.428Z,26.2084
2023-04-23T06:39:34.183Z,26.2439
2023-04-23T06:40:35.718Z,26.2749
2023-04-23T06:41:37.337Z,26.2930
2023-04-23T06:42:40.096Z,26.3133
2023-04-23T06:43:40.887Z,26.3372
2023-04-23T06:44:42.675Z,26.3600
2023-04-23T06:45:44.232Z,26.3774
2023-04-23T06:46:45.826Z,26.4169
2023-04-23T06:47:48.212Z,26.4493
2023-04-23T06:48:48.999Z,26.4754
2023-04-23T06:49:50.736Z,26.5056
2023-04-23T06:50:52.379Z,26.5251
2023-04-23T06:51:56.975Z,26.5668
2023-04-23T06:52:55.476Z,26.5841
2023-04-23T06:53:57.193Z,26.6087
2023-04-23T06:54:59.862Z,26.6262
2023-04-23T06:56:00.461Z,26.6607
2023-04-23T06:57:02.179Z,26.6804
2023-04-23T06:58:03.753Z,26.6570
2023-04-23T06:59:05.356Z,26.3776
2023-04-23T07:00:07.109Z,25.9769
2023-04-23T07:01:08.701Z,25.5387
2023-04-23T07:02:10.369Z,25.6575
2023-04-23T07:03:11.997Z,25.8738
2023-04-23T07:04:13.669Z,26.0467
2023-04-23T07:05:15.272Z,26.1734
2023-04-23T07:06:18.603Z,26.2451
2023-04-23T07:07:18.508Z,26.3191
2023-04-23T07:08:20.205Z,26.3848
2023-04-23T07:09:21.818Z,26.4323
2023-04-23T07:10:23.560Z,26.5105
2023-04-23T07:11:25.142Z,26.5419
2023-04-23T07:12:26.830Z,26.5639
2023-04-23T07:13:28.442Z,26.4008
2023-04-23T07:14:30.087Z,25.7982
2023-04-23T07:15:31.845Z,25.6472
2023-04-23T07:16:33.480Z,25.8505
2023-04-23T07:17:34.992Z,26.0469
2023-04-23T07:18:36.657Z,26.1759
2023-04-23T07:19:38.288Z,26.2868
2023-04-23T07:20:39.989Z,26.3281
2023-04-23T07:21:41.578Z,26.3928
2023-04-23T07:22:43.232Z,26.4401
2023-04-23T07:23:44.865Z,26.5154
2023-04-23T07:24:46.522Z,26.5479
2023-04-23T07:25:48.183Z,26.5728
2023-04-23T07:26:49.858Z,26.1527
2023-04-23T07:27:51.401Z,25.6774
2023-04-23T07:28:53.183Z,25.6174
2023-04-23T07:29:54.704Z,25.8588
2023-04-23T07:30:56.454Z,26.1087
2023-04-23T07:31:58.077Z,26.2864
2023-04-23T07:32:59.718Z,26.4111
2023-04-23T07:34:01.392Z,26.5044
2023-04-23T07:35:02.975Z,26.5471
2023-04-23T07:36:04.598Z,26.6179
2023-04-23T07:37:06.316Z,26.1180
2023-04-23T07:38:07.860Z,25.5359
2023-04-23T07:39:09.545Z,25.3424
2023-04-23T07:40:11.189Z,25.6369
2023-04-23T07:41:12.914Z,25.9892
2023-04-23T07:42:15.068Z,26.2236
2023-04-23T07:43:16.142Z,26.3456
2023-04-23T07:44:17.761Z,26.4041
2023-04-23T07:45:19.500Z,26.4358
2023-04-23T07:46:21.146Z,26.4713
2023-04-23T07:47:23.002Z,26.4924
2023-04-23T07:48:24.413Z,26.4575
2023-04-23T07:49:26.021Z,25.8265
2023-04-23T07:50:27.637Z,25.4295
2023-04-23T07:51:29.351Z,25.4699
2023-04-23T07:52:30.957Z,25.6665
2023-04-23T07:53:32.577Z,25.8425
2023-04-23T07:54:34.207Z,25.9740
2023-04-23T07:55:35.917Z,26.0442
2023-04-23T07:56:37.597Z,26.0958
2023-04-23T07:57:39.241Z,26.1274
2023-04-23T07:58:40.815Z,26.1582
2023-04-23T07:59:42.863Z,26.1706
2023-04-23T08:00:44.088Z,26.1652
2023-04-23T08:01:45.820Z,26.1774
2023-04-23T08:02:47.614Z,26.1965
2023-04-23T08:03:49.440Z,26.2154
2023-04-23T08:04:50.827Z,26.2287
2023-04-23T08:05:52.336Z,26.2476
2023-04-23T08:06:54.045Z,26.2630
2023-04-23T08:07:55.645Z,26.2759
2023-04-23T08:08:57.308Z,26.2686
2023-04-23T08:09:58.900Z,26.2636
2023-04-23T08:11:00.547Z,26.2659
2023-04-23T08:12:02.236Z,26.2575
2023-04-23T08:13:03.902Z,26.2441
2023-04-23T08:14:05.496Z,26.2386
2023-04-23T08:15:07.220Z,26.2534
2023-04-23T08:16:08.790Z,26.2468
2023-04-23T08:17:10.463Z,26.2466
2023-04-23T08:18:12.107Z,26.2433
2023-04-23T08:19:13.706Z,26.2174
2023-04-23T08:20:15.302Z,26.2125
2023-04-23T08:21:17.031Z,26.2330
2023-04-23T08:22:20.293Z,26.2119
2023-04-23T08:23:20.353Z,26.2326
2023-04-23T08:24:22.456Z,26.2392
2023-04-23T08:25:23.603Z,26.2382
2023-04-23T08:26:25.214Z,26.2312
2023-04-23T08:27:26.971Z,26.2264
2023-04-23T08:28:28.593Z,26.2213
2023-04-23T08:29:30.208Z,26.2328
2023-04-23T08:30:31.789Z,26.2308
2023-04-23T08:31:33.509Z,26.2449
2023-04-23T08:32:35.158Z,26.2538
2023-04-23T08:33:36.875Z,26.2655
2023-04-23T08:34:38.442Z,26.2677
2023-04-23T08:35:40.078Z,26.2644
2023-04-23T08:36:41.649Z,26.2727
2023-04-23T08:37:43.444Z,26.2901
2023-04-23T08:38:44.989Z,26.3271
2023-04-23T08:39:46.686Z,26.3370
2023-04-23T08:40:48.227Z,26.3542
2023-04-23T08:41:49.926Z,26.3505
2023-04-23T08:42:51.644Z,26.3565
2023-04-23T08:43:53.238Z,26.3591
2023-04-23T08:44:54.801Z,26.3604
2023-04-23T08:45:56.510Z,26.3482
2023-04-23T08:46:58.248Z,26.3548
2023-04-23T08:48:02.134Z,26.3435
2023-04-23T08:49:01.452Z,26.3388
2023-04-23T08:50:03.074Z,26.3462
2023-04-23T08:51:04.690Z,26.3376
2023-04-23T08:52:06.380Z,26.2733
2023-04-23T08:53:08.065Z,25.9185
2023-04-23T08:54:09.679Z,25.4829
2023-04-23T08:55:11.255Z,25.2123
2023-04-23T08:56:12.940Z,24.9351
2023-04-23T08:57:14.574Z,24.6865
2023-04-23T08:58:16.279Z,24.6760
2023-04-23T08:59:17.911Z,24.7976
2023-04-23T09:00:19.455Z,24.9858
2023-04-23T09:01:21.297Z,25.1937
2023-04-23T09:02:22.986Z,25.3892
2023-04-23T09:03:24.547Z,25.5558
2023-04-23T09:04:26.164Z,25.7244
2023-04-23T09:05:27.710Z,25.8206
2023-04-23T09:06:29.422Z,25.8770
2023-04-23T09:07:31.023Z,25.9309
2023-04-23T09:08:32.753Z,25.9541
2023-04-23T09:09:34.641Z,25.9563
2023-04-23T09:10:35.974Z,25.9974
2023-04-23T09:11:37.577Z,25.9995
2023-04-23T09:12:39.276Z,26.0342
2023-04-23T09:13:40.950Z,26.0401
2023-04-23T09:14:42.852Z,26.0272
2023-04-23T09:15:44.169Z,26.0073
2023-04-23T09:16:45.922Z,26.0040
2023-04-23T09:17:47.529Z,26.0245
2023-04-23T09:18:49.194Z,26.0305
2023-04-23T09:19:50.858Z,26.0293
2023-04-23T09:20:52.528Z,26.0465
2023-04-23T09:21:54.046Z,26.0699
2023-04-23T09:22:55.727Z,26.0802
2023-04-23T09:23:57.449Z,26.0816
2023-04-23T09:24:59.090Z,26.0901
2023-04-23T09:26:00.627Z,26.0942
2023-04-23T09:27:02.267Z,26.1022
2023-04-23T09:28:03.958Z,26.1178
2023-04-23T09:29:05.609Z,26.1537
2023-04-23T09:30:07.294Z,26.1535
2023-04-23T09:31:08.879Z,26.1839
2023-04-23T09:32:10.586Z,26.1872
2023-04-23T09:33:12.151Z,26.1854
2023-04-23T09:34:14.206Z,26.1819
2023-04-23T09:35:15.554Z,26.1718
2023-04-23T09:36:17.233Z,26.1691
2023-04-23T09:37:18.783Z,26.1626
2023-04-23T09:38:20.428Z,26.1852
2023-04-23T09:39:22.065Z,26.2178
2023-04-23T09:40:23.749Z,26.2207
2023-04-23T09:41:25.304Z,26.2527
2023-04-23T09:42:26.986Z,26.2942
2023-04-23T09:43:28.575Z,26.3390
2023-04-23T09:44:30.353Z,26.3491
2023-04-23T09:45:31.945Z,26.3678
2023-04-23T09:46:33.562Z,26.3965
2023-04-23T09:47:35.252Z,26.4378
2023-04-23T09:48:36.879Z,26.4879
2023-04-23T09:49:38.534Z,26.5695
2023-04-23T09:50:40.245Z,26.6391
2023-04-23T09:51:41.769Z,26.6818
2023-04-23T09:52:43.431Z,26.6868
2023-04-23T09:53:45.056Z,26.6114
2023-04-23T09:54:47.214Z,26.2583
2023-04-23T09:55:48.397Z,25.9237
2023-04-23T09:56:50.076Z,25.7000
2023-04-23T09:57:51.611Z,25.5053
2023-04-23T09:58:53.366Z,25.3890
2023-04-23T10:00:03.754Z,25.4668
2023-04-23T10:00:56.638Z,25.6098
2023-04-23T10:01:58.289Z,25.7437
2023-04-23T10:03:00.168Z,25.8473
2023-04-23T10:04:01.694Z,25.9578
2023-04-23T10:05:21.468Z,26.0397
2023-04-23T10:06:05.264Z,26.1258
2023-04-23T10:07:17.923Z,26.2059
2023-04-23T10:08:08.232Z,26.2801
2023-04-23T10:09:09.704Z,26.3318
2023-04-23T10:10:11.463Z,26.3875
2023-04-23T10:11:20.734Z,26.4419
2023-04-23T10:13:16.302Z,26.5397
2023-04-23T10:14:17.962Z,26.6171
2023-04-23T10:15:19.684Z,26.7233
2023-04-23T10:16:23.284Z,26.8147
2023-04-23T10:17:22.932Z,26.8572
2023-04-23T10:18:24.492Z,26.7866
2023-04-23T10:19:27.171Z,26.7003
2023-04-23T10:20:27.878Z,26.7297
2023-04-23T10:21:36.620Z,26.7346
2023-04-23T10:22:31.067Z,26.7515
2023-04-23T10:23:32.802Z,26.6931
2023-04-23T10:24:34.371Z,26.6599
2023-04-23T10:25:36.729Z,26.7044
2023-04-23T10:26:38.190Z,26.7543
2023-04-23T10:27:51.118Z,26.8020
2023-04-23T10:28:41.042Z,26.7812
2023-04-23T10:29:43.017Z,26.6863
2023-04-23T10:30:44.681Z,26.7243
2023-04-23T10:31:45.980Z,26.7110
2023-04-23T10:32:47.561Z,26.7094
2023-04-23T10:33:58.204Z,26.7287
2023-04-23T10:34:50.931Z,26.7786
2023-04-23T10:35:52.601Z,26.8153
2023-04-23T10:36:54.181Z,26.8028
2023-04-23T10:37:55.844Z,26.6416
2023-04-23T10:38:59.106Z,26.5816
2023-04-23T10:39:59.132Z,26.5886
2023-04-23T10:41:00.801Z,26.6652
2023-04-23T10:42:02.466Z,26.7227
2023-04-23T10:43:04.026Z,26.7511
2023-04-23T10:44:05.723Z,26.6229
2023-04-23T10:45:16.613Z,26.5814
2023-04-23T10:46:09.139Z,26.4883
2023-04-23T10:47:10.738Z,26.5062
2023-04-23T10:48:12.460Z,26.4939
2023-04-23T10:49:14.016Z,26.5093
2023-04-23T10:50:15.744Z,26.6251
2023-04-23T10:51:56.084Z,26.6722
2023-04-23T10:52:21.495Z,26.7040
2023-04-23T10:53:20.604Z,26.6687
2023-04-23T10:54:22.319Z,26.5960
2023-04-23T10:55:23.969Z,26.5645
2023-04-23T10:56:25.789Z,26.6342
2023-04-23T10:57:27.271Z,26.6590
2023-04-23T10:58:28.943Z,26.7332
2023-04-23T10:59:30.465Z,26.6753
2023-04-23T11:00:32.164Z,26.6576
2023-04-23T11:01:33.827Z,26.5843
2023-04-23T11:02:35.607Z,26.5580
2023-04-23T11:03:39.646Z,26.6015
2023-04-23T11:04:38.834Z,26.6886
2023-04-23T11:05:40.389Z,26.7724
2023-04-23T11:06:42.089Z,26.8351
2023-04-23T11:07:43.750Z,26.8973
2023-04-23T11:08:45.426Z,26.9503
2023-04-23T11:09:47.013Z,26.9801
2023-04-23T11:10:48.667Z,27.0154
2023-04-23T11:11:50.288Z,27.0008
2023-04-23T11:12:52.027Z,26.7393
2023-04-23T11:13:53.621Z,26.6481
2023-04-23T11:14:55.307Z,26.7513
2023-04-23T11:15:56.907Z,26.7120
2023-04-23T11:16:58.530Z,26.8071
2023-04-23T11:18:00.216Z,26.9228
2023-04-23T11:19:01.911Z,26.8708
2023-04-23T11:20:03.558Z,26.5146
2023-04-23T11:21:05.187Z,26.1293
2023-04-23T11:22:06.767Z,26.1886
2023-04-23T11:23:08.462Z,26.1003
2023-04-23T11:24:10.097Z,26.0818
2023-04-23T11:25:11.842Z,25.9816
2023-04-23T11:26:13.424Z,25.8600
2023-04-23T11:27:15.044Z,25.9403
2023-04-23T11:28:16.694Z,25.9541
2023-04-23T11:29:18.339Z,26.0564
2023-04-23T11:30:19.962Z,26.2681
2023-04-23T11:31:21.656Z,26.2706
2023-04-23T11:32:23.298Z,26.3501
2023-04-23T11:33:24.927Z,26.5290
2023-04-23T11:34:26.604Z,26.5327
2023-04-23T11:35:28.167Z,26.4386
2023-04-23T11:36:30.699Z,26.3275
2023-04-23T11:37:31.480Z,26.1950
2023-04-23T11:38:33.056Z,26.0946
2023-04-23T11:39:34.733Z,26.0521
2023-04-23T11:40:36.643Z,25.9128
2023-04-23T11:41:38.087Z,25.9046
2023-04-23T11:42:39.664Z,25.8505
2023-04-23T11:43:42.212Z,25.8949
2023-04-23T11:44:42.972Z,26.0995
2023-04-23T11:45:44.701Z,26.3250
2023-04-23T11:46:46.272Z,26.4503
2023-04-23T11:47:47.962Z,26.5643
2023-04-23T11:48:49.562Z,26.6566
2023-04-23T11:49:51.271Z,26.6401
2023-04-23T11:50:53.130Z,26.5019
2023-04-23T11:51:54.611Z,26.3495
2023-04-23T11:52:56.201Z,26.1792
2023-04-23T11:53:57.906Z,26.2410
2023-04-23T11:54:59.467Z,26.3692
2023-04-23T11:56:01.219Z,26.4037
2023-04-23T11:57:02.788Z,26.4179
2023-04-23T11:58:04.472Z,26.4612
2023-04-23T11:59:06.069Z,26.5198
2023-04-23T12:00:07.763Z,26.6329
2023-04-23T12:01:09.448Z,26.6083
2023-04-23T12:02:11.100Z,26.5951
2023-04-23T12:03:12.936Z,26.4844
2023-04-23T12:04:14.662Z,26.4282
2023-04-23T12:05:16.154Z,26.2835
2023-04-23T12:06:17.883Z,26.0613
2023-04-23T12:07:26.341Z,26.1131
2023-04-23T12:08:21.140Z,26.3174
2023-04-23T12:09:23.725Z,26.4577
2023-04-23T12:10:24.392Z,26.5128
2023-04-23T12:11:26.122Z,26.2677
2023-04-23T12:12:27.738Z,26.2780
2023-04-23T12:13:29.407Z,26.2412
2023-04-23T12:14:31.176Z,26.2188
2023-04-23T12:15:32.780Z,26.2780
2023-04-23T12:16:34.271Z,26.3577
2023-04-23T12:17:35.997Z,26.4421
2023-04-23T12:18:37.680Z,26.4994
2023-04-23T12:19:39.380Z,26.5128
2023-04-23T12:20:40.888Z,26.5721
2023-04-23T12:21:42.685Z,26.6116
2023-04-23T12:22:44.193Z,26.4390
2023-04-23T12:23:45.915Z,26.2384
2023-04-23T12:24:47.416Z,26.1591
2023-04-23T12:25:49.193Z,26.1307
2023-04-23T12:26:50.810Z,26.0428